createdAt,value
2019-04-14T00:02:33.739Z,55.01
2019-04-14T00:07:37.020Z,54.94
2019-04-14T00:12:40.583Z,55.12
2019-04-14T00:17:43.897Z,55.34
2019-04-14T00:22:47.316Z,55.36
2019-04-14T00:27:50.617Z,55.34
2019-04-14T00:32:55.566Z,55.26
2019-04-14T00:38:19.523Z,55.65
2019-04-14T00:43:27.431Z,55.67
2019-04-14T00:48:31.990Z,55.93
2019-04-14T00:53:36.006Z,56.63
2019-04-14T00:58:39.358Z,56.42
2019-04-14T01:03:43.571Z,56.22
2019-04-14T01:08:47.116Z,56.69
2019-04-14T01:13:50.833Z,57.40
2019-04-14T01:18:54.111Z,57.55
2019-04-14T01:23:57.422Z,57.16
2019-04-14T01:29:01.468Z,57.43
2019-04-14T01:34:04.871Z,57.75
2019-04-14T01:39:08.968Z,57.46
2019-04-14T01:44:13.261Z,57.77
2019-04-14T01:49:17.923Z,58.57
2019-04-14T01:54:23.490Z,57.91
2019-04-14T01:59:26.876Z,58.02
2019-04-14T02:04:31.283Z,58.12
2019-04-14T02:09:35.759Z,58.31
2019-04-14T02:14:39.114Z,58.23
2019-04-14T02:19:43.775Z,58.44
2019-04-14T02:24:48.180Z,58.97
2019-04-14T02:29:51.668Z,59.04
2019-04-14T02:35:24.160Z,59.13
2019-04-14T02:40:28.642Z,59.85
2019-04-14T02:45:35.366Z,59.87
2019-04-14T02:50:30.722Z,60.89
2019-04-14T02:55:42.282Z,61.02
2019-04-14T03:00:54.189Z,61.64
2019-04-14T03:05:57.959Z,62.40
2019-04-14T03:10:55.719Z,62.75
2019-04-14T03:16:08.019Z,62.34
2019-04-14T03:21:26.272Z,62.65
2019-04-14T03:26:40.334Z,62.20
2019-04-14T03:41:52.793Z,62.57
2019-04-14T03:47:08.900Z,62.55
2019-04-14T03:56:49.002Z,62.87
2019-04-14T04:01:54.460Z,62.62
2019-04-14T04:06:57.901Z,62.78
2019-04-14T04:12:01.226Z,63.18
2019-04-14T04:17:06.153Z,63.08
2019-04-14T04:22:26.463Z,63.47
2019-04-14T04:27:31.403Z,63.87
2019-04-14T04:32:51.517Z,63.56
2019-04-14T04:37:56.495Z,64.14
2019-04-14T04:42:59.852Z,64.39
2019-04-14T04:48:04.574Z,65.15
2019-04-14T04:53:08.990Z,65.29
2019-04-14T04:58:12.592Z,64.97
2019-04-14T05:03:16.844Z,65.13
2019-04-14T05:08:20.175Z,64.87
2019-04-14T05:13:24.863Z,64.77
2019-04-14T05:18:29.028Z,63.93
2019-04-14T05:23:32.393Z,63.91
2019-04-14T05:28:35.688Z,64.02
2019-04-14T05:33:38.990Z,63.83
2019-04-14T05:38:42.839Z,63.68
2019-04-14T05:43:52.053Z,63.64
2019-04-14T05:48:51.485Z,63.38
2019-04-14T05:53:54.821Z,63.47
2019-04-14T05:58:58.323Z,63.38
2019-04-14T06:04:02.497Z,63.16
2019-04-14T06:09:07.665Z,63.57
2019-04-14T06:14:11.150Z,62.86
2019-04-14T06:19:14.538Z,63.18
2019-04-14T06:24:18.041Z,62.77
2019-04-14T06:29:21.348Z,62.40
2019-04-14T06:34:41.234Z,61.94
2019-04-14T06:39:48.869Z,61.64
2019-04-14T06:44:52.210Z,60.69
2019-04-14T06:49:55.495Z,59.56
2019-04-14T06:54:58.788Z,58.56
2019-04-14T07:00:02.095Z,57.73
2019-04-14T07:05:06.658Z,56.81
2019-04-14T07:10:10.090Z,56.82
2019-04-14T07:15:13.381Z,55.31
2019-04-14T07:20:16.678Z,55.54
2019-04-14T07:25:19.986Z,53.95
2019-04-14T07:30:27.675Z,53.16
2019-04-14T07:35:48.756Z,51.87
2019-04-14T07:41:09.771Z,51.59
2019-04-14T07:46:14.727Z,50.79
2019-04-14T07:51:19.646Z,50.49
2019-04-14T07:56:24.591Z,50.14
2019-04-14T08:01:29.523Z,49.57
2019-04-14T08:06:33.441Z,49.21
2019-04-14T08:11:36.738Z,48.44
2019-04-14T08:16:40.042Z,47.88
2019-04-14T08:21:43.349Z,47.11
2019-04-14T08:26:46.719Z,46.96
2019-04-14T08:31:50.006Z,46.40
2019-04-14T08:36:53.544Z,46.29
2019-04-14T08:42:04.133Z,44.83
2019-04-14T08:47:09.066Z,44.44
2019-04-14T08:52:14.019Z,43.98
2019-04-14T08:57:18.985Z,43.11
2019-04-14T09:02:26.324Z,43.62
2019-04-14T09:07:40.509Z,42.90
2019-04-14T09:12:45.578Z,43.13
2019-04-14T09:17:48.875Z,43.95
2019-04-14T09:22:52.171Z,41.21
2019-04-14T09:27:55.460Z,41.12
2019-04-14T09:32:58.762Z,41.19
2019-04-14T09:38:02.060Z,41.46
2019-04-14T09:43:05.537Z,40.79
2019-04-14T09:48:08.847Z,40.93
2019-04-14T09:53:12.239Z,41.76
2019-04-14T09:58:16.120Z,41.45
2019-04-14T10:03:19.387Z,41.48
2019-04-14T10:08:22.686Z,41.17
2019-04-14T10:13:26.059Z,41.29
2019-04-14T10:18:29.360Z,43.13
2019-04-14T10:23:32.653Z,41.87
2019-04-14T10:28:35.960Z,39.26
2019-04-14T10:33:39.328Z,42.02
2019-04-14T10:38:42.633Z,41.20
2019-04-14T10:43:45.918Z,39.17
2019-04-14T10:48:49.221Z,39.89
2019-04-14T10:53:52.521Z,39.53
2019-04-14T10:58:55.872Z,39.40
2019-04-14T11:03:59.164Z,39.62
2019-04-14T11:09:02.597Z,37.66
2019-04-14T11:14:05.905Z,39.08
2019-04-14T11:19:09.235Z,39.59
2019-04-14T11:24:12.542Z,39.81
2019-04-14T11:29:15.836Z,40.11
2019-04-14T11:34:21.019Z,40.58
2019-04-14T11:39:24.494Z,40.65
2019-04-14T11:44:27.789Z,41.59
2019-04-14T11:49:31.092Z,42.54
2019-04-14T11:54:34.472Z,43.20
2019-04-14T11:59:39.416Z,44.43
2019-04-14T12:04:47.031Z,44.07
2019-04-14T12:09:51.980Z,43.72
2019-04-14T12:14:55.289Z,43.93
2019-04-14T12:19:58.604Z,44.50
2019-04-14T12:25:01.924Z,44.65
2019-04-14T12:30:11.094Z,44.73
2019-04-14T12:35:14.779Z,44.95
2019-04-14T12:40:18.119Z,45.74
2019-04-14T12:45:39.222Z,46.42
2019-04-14T12:50:52.974Z,47.24
2019-04-14T12:55:56.286Z,46.92
2019-04-14T13:01:01.233Z,47.03
2019-04-14T13:06:04.621Z,47.30
2019-04-14T13:11:08.197Z,47.39
2019-04-14T13:16:11.504Z,47.15
2019-04-14T13:21:14.817Z,47.92
2019-04-14T13:26:20.075Z,47.41
2019-04-14T13:31:23.398Z,48.34
2019-04-14T13:36:26.702Z,48.51
2019-04-14T13:41:30.013Z,47.18
2019-04-14T13:46:33.359Z,46.51
2019-04-14T13:51:36.694Z,47.17
2019-04-14T13:56:40.078Z,47.74
2019-04-14T14:01:43.396Z,48.75
2019-04-14T14:06:46.816Z,48.34
2019-04-14T14:11:57.746Z,48.37
2019-04-14T14:17:08.501Z,47.98
2019-04-14T14:22:13.454Z,48.73
2019-04-14T14:27:16.751Z,49.17
2019-04-14T14:32:21.715Z,48.56
2019-04-14T14:37:25.021Z,48.06
2019-04-14T14:42:28.340Z,47.79
2019-04-14T14:47:33.284Z,48.00
2019-04-14T14:52:38.030Z,50.23
2019-04-14T14:57:41.339Z,50.69
2019-04-14T15:02:44.717Z,50.80
2019-04-14T15:07:48.049Z,50.80
2019-04-14T15:12:51.382Z,51.19
2019-04-14T15:17:56.111Z,51.99
2019-04-14T15:22:59.403Z,51.96
2019-04-14T15:28:03.675Z,51.62
2019-04-14T15:33:06.974Z,52.20
2019-04-14T15:38:10.282Z,52.87
2019-04-14T15:43:13.591Z,52.85
2019-04-14T15:48:16.937Z,53.48
2019-04-14T15:53:20.295Z,53.88
2019-04-14T15:58:37.464Z,53.86
2019-04-14T16:03:58.662Z,53.81
2019-04-14T16:09:19.766Z,54.20
2019-04-14T16:14:24.746Z,54.90
2019-04-14T16:19:32.440Z,56.03
2019-04-14T16:24:35.754Z,55.52
2019-04-14T16:29:44.023Z,55.28
2019-04-14T16:34:49.947Z,55.74
2019-04-14T16:39:53.257Z,55.68
2019-04-14T16:44:56.563Z,55.43
2019-04-14T16:50:00.033Z,55.79
2019-04-14T16:55:08.540Z,56.11
2019-04-14T17:00:13.650Z,57.31
2019-04-14T17:05:16.987Z,57.59
2019-04-14T17:10:20.297Z,57.96
2019-04-14T17:15:31.097Z,57.93
2019-04-14T17:20:38.702Z,58.01
2019-04-14T17:25:49.502Z,58.79
2019-04-14T17:30:56.946Z,58.96
2019-04-14T17:36:11.236Z,59.04
2019-04-14T17:41:19.074Z,59.72
2019-04-14T17:46:24.084Z,60.22
2019-04-14T17:51:31.719Z,60.80
2019-04-14T17:56:36.672Z,61.12
2019-04-14T18:01:47.175Z,61.22
2019-04-14T18:06:55.228Z,61.49
2019-04-14T18:12:09.180Z,61.85
2019-04-14T18:17:29.173Z,62.05
2019-04-14T18:22:32.554Z,62.01
2019-04-14T18:27:37.521Z,62.04
2019-04-14T18:32:44.883Z,62.32
2019-04-14T18:37:52.979Z,62.47
2019-04-14T18:42:58.271Z,62.28
2019-04-14T18:48:05.778Z,62.53
2019-04-14T18:53:11.016Z,62.61
2019-04-14T18:58:16.273Z,62.72
2019-04-14T19:03:19.670Z,62.90
2019-04-14T19:08:22.969Z,62.83
2019-04-14T19:13:32.189Z,63.15
2019-04-14T19:18:39.655Z,63.32
2019-04-14T19:23:43.070Z,63.29
2019-04-14T19:28:46.610Z,63.37
2019-04-14T19:33:50.011Z,63.07
2019-04-14T19:38:53.362Z,63.85
2019-04-14T19:43:56.740Z,64.22
2019-04-14T19:49:00.413Z,64.83
2019-04-14T19:54:03.926Z,64.96
2019-04-14T19:59:07.311Z,66.21
2019-04-14T20:04:10.640Z,66.89
2019-04-14T20:09:13.951Z,67.21
2019-04-14T20:14:17.337Z,67.64
2019-04-14T20:19:41.559Z,68.10
2019-04-14T20:24:49.264Z,68.16
2019-04-14T20:29:59.998Z,68.41
2019-04-14T20:35:03.469Z,69.13
2019-04-14T20:40:07.104Z,69.54
2019-04-14T20:45:12.160Z,68.78
2019-04-14T20:50:16.012Z,69.94
2019-04-14T20:55:19.329Z,70.78
2019-04-14T21:00:22.769Z,71.17
2019-04-14T21:05:27.711Z,70.85
2019-04-14T21:10:44.609Z,71.21
2019-04-14T21:16:12.663Z,71.10
2019-04-14T21:21:14.343Z,71.28
2019-04-14T21:26:37.625Z,71.28
2019-04-14T21:31:42.621Z,71.71
2019-04-14T21:36:50.212Z,71.69
2019-04-14T21:41:53.690Z,71.35
2019-04-14T21:46:57.031Z,71.68
2019-04-14T21:52:20.170Z,71.71
2019-04-14T21:57:27.532Z,71.54
2019-04-14T22:02:48.659Z,71.01
2019-04-14T22:07:53.599Z,70.29
2019-04-14T22:12:57.037Z,70.95
2019-04-14T22:18:00.658Z,71.03
2019-04-14T22:23:05.587Z,70.55
2019-04-14T22:28:08.958Z,70.95
2019-04-14T22:33:12.340Z,69.50
2019-04-14T22:38:15.651Z,70.63
2019-04-14T22:43:18.951Z,71.15
2019-04-14T22:48:22.271Z,71.26
2019-04-14T22:53:25.583Z,71.06
2019-04-14T22:58:28.899Z,71.06
2019-04-14T23:03:36.219Z,70.33
2019-04-14T23:08:46.680Z,70.98
2019-04-14T23:14:06.276Z,70.74
2019-04-14T23:19:11.212Z,71.11
2019-04-14T23:24:18.828Z,71.46
2019-04-14T23:29:22.124Z,71.81
2019-04-14T23:34:25.416Z,71.33
2019-04-14T23:39:28.721Z,71.86
2019-04-14T23:44:32.032Z,71.84
2019-04-14T23:49:35.346Z,72.25
2019-04-14T23:54:38.663Z,71.95
2019-04-14T23:59:41.957Z,71.79
